Time;durP1;ratioP1;P1;durP2;ratioP2;P2;SDS_P1;SDS_P2;PMS_P1;PMS_P2;Temp;Humidity;BMP_temperature;BMP_pressure;BME280_temperature;BME280_humidity;BME280_pressure;Samples;Min_cycle;Max_cycle;Signal;HPM_P1;HPM_P2
2021/03/06 00:00:15;;;;;;;13.95;6.95;;;;;;;-0.99;81.95;102842.31;4929112;29;20050;-70
2021/03/06 00:02:40;;;;;;;14.50;5.90;;;;;;;-1.00;82.33;102845.84;4929428;29;20490;-70
2021/03/06 00:05:07;;;;;;;16.08;6.75;;;;;;;-1.05;82.65;102847.47;4919579;29;20046;-70
2021/03/06 00:07:33;;;;;;;15.63;7.10;;;;;;;-1.09;83.23;102834.25;4913835;29;20050;-70
2021/03/06 00:09:58;;;;;;;13.30;6.47;;;;;;;-1.13;83.75;102838.56;4928855;29;20031;-70
2021/03/06 00:12:23;;;;;;;20.20;6.93;;;;;;;-1.14;83.65;102842.06;4921764;29;20042;-70
2021/03/06 00:14:49;;;;;;;14.23;6.78;;;;;;;-1.15;83.53;102849.94;4940531;29;20027;-70
2021/03/06 00:17:14;;;;;;;19.50;7.57;;;;;;;-1.16;83.48;102854.31;4930722;29;20046;-70
2021/03/06 00:19:41;;;;;;;15.82;7.40;;;;;;;-1.19;83.89;102851.66;4928027;29;20039;-70
2021/03/06 00:22:06;;;;;;;16.45;7.07;;;;;;;-1.22;83.78;102848.94;4931758;29;20039;-70
2021/03/06 00:24:32;;;;;;;22.58;7.15;;;;;;;-1.24;83.61;102848.94;4932680;29;20094;-70
2021/03/06 00:26:58;;;;;;;15.40;7.32;;;;;;;-1.25;83.89;102848.91;4932253;29;20039;-70
2021/03/06 00:29:24;;;;;;;14.65;7.15;;;;;;;-1.27;83.84;102842.72;4913187;29;20088;-70
2021/03/06 00:31:49;;;;;;;17.10;7.28;;;;;;;-1.28;84.20;102855.00;4933110;29;20457;-70
2021/03/06 00:34:14;;;;;;;15.20;6.97;;;;;;;-1.30;84.58;102853.22;4930839;29;20044;-70
2021/03/06 00:36:40;;;;;;;15.00;7.18;;;;;;;-1.30;84.70;102863.75;4931330;29;20059;-70
2021/03/06 00:39:06;;;;;;;18.85;8.32;;;;;;;-1.32;85.03;102855.81;4929887;29;20035;-70
2021/03/06 00:41:32;;;;;;;14.38;7.95;;;;;;;-1.32;85.17;102862.81;4931344;29;20042;-70
2021/03/06 00:43:58;;;;;;;16.70;7.50;;;;;;;-1.34;85.57;102861.88;4931339;29;20032;-70
2021/03/06 00:46:24;;;;;;;19.08;8.32;;;;;;;-1.37;85.56;102865.38;4934488;29;20772;-71
2021/03/06 00:48:50;;;;;;;21.15;9.35;;;;;;;-1.40;85.70;102849.50;4914315;29;20039;-70
2021/03/06 00:51:16;;;;;;;15.80;8.18;;;;;;;-1.41;86.33;102862.63;4914042;29;20032;-70
2021/03/06 00:53:41;;;;;;;16.80;7.97;;;;;;;-1.46;86.45;102854.66;4918822;29;20059;-70
2021/03/06 00:56:07;;;;;;;14.23;7.93;;;;;;;-1.48;86.52;102864.25;4901152;29;20058;-70
2021/03/06 00:58:35;;;;;;;20.73;8.55;;;;;;;-1.49;86.67;102854.59;4921136;29;20057;-70
2021/03/06 01:01:03;;;;;;;23.77;7.70;;;;;;;-1.53;86.88;102847.47;4934487;29;20032;-69
2021/03/06 01:03:29;;;;;;;22.23;8.63;;;;;;;-1.55;86.68;102854.50;4937201;29;20118;-71
2021/03/06 01:05:54;;;;;;;16.88;8.20;;;;;;;-1.58;86.59;102853.53;4930443;29;20447;-71
2021/03/06 01:08:19;;;;;;;14.13;8.40;;;;;;;-1.59;86.64;102852.63;4937540;29;20043;-69
2021/03/06 01:10:45;;;;;;;17.58;8.18;;;;;;;-1.60;86.49;102855.25;4932848;29;20042;-71
2021/03/06 01:13:11;;;;;;;18.17;7.97;;;;;;;-1.65;86.78;102840.25;4917453;29;20050;-70
2021/03/06 01:15:37;;;;;;;15.38;7.78;;;;;;;-1.65;86.79;102842.88;4937006;29;20032;-70
2021/03/06 01:18:04;;;;;;;17.70;8.90;;;;;;;-1.66;87.03;102848.09;4927008;29;20023;-70
2021/03/06 01:20:30;;;;;;;22.52;9.65;;;;;;;-1.68;87.04;102848.09;4915059;29;20122;-70
2021/03/06 01:22:56;;;;;;;18.58;8.00;;;;;;;-1.70;87.51;102847.16;4932957;29;20491;-70
2021/03/06 01:25:22;;;;;;;17.73;8.75;;;;;;;-1.73;87.56;102841.81;4931918;29;20043;-69
2021/03/06 01:27:48;;;;;;;16.75;7.93;;;;;;;-1.74;87.94;102847.97;4917631;29;20039;-71
2021/03/06 01:30:14;;;;;;;20.50;8.75;;;;;;;-1.76;88.26;102838.25;4923376;29;20115;-71
2021/03/06 01:32:39;;;;;;;18.00;8.93;;;;;;;-1.79;88.33;102838.22;4932341;29;20545;-70
2021/03/06 01:35:10;;;;;;;21.80;8.80;;;;;;;-1.81;88.78;102840.81;4927990;29;20028;-70
2021/03/06 01:37:36;;;;;;;17.75;9.25;;;;;;;-1.83;88.88;102833.72;4931294;29;20074;-70
2021/03/06 01:40:11;;;;;;;19.33;8.63;;;;;;;-1.84;89.11;102834.56;4932213;29;20028;-70
2021/03/06 01:42:38;;;;;;;23.52;9.48;;;;;;;-1.87;89.42;102830.16;4935956;29;20101;-71
2021/03/06 01:45:05;;;;;;;18.92;9.55;;;;;;;-1.91;89.92;102833.56;4931336;29;20066;-72
2021/03/06 01:47:32;;;;;;;19.48;9.27;;;;;;;-1.89;90.26;102830.97;4931819;29;20066;-70
2021/03/06 01:49:57;;;;;;;21.33;10.23;;;;;;;-1.93;90.36;102829.13;4931062;29;20043;-71
2021/03/06 01:52:23;;;;;;;22.83;9.77;;;;;;;-1.97;90.75;102838.69;4936394;29;20055;-71
2021/03/06 01:54:50;;;;;;;18.83;9.50;;;;;;;-1.98;90.95;102842.22;4914155;29;20087;-72
2021/03/06 01:57:16;;;;;;;28.27;10.55;;;;;;;-1.98;91.44;102836.94;4932023;29;20122;-68
2021/03/06 01:59:41;;;;;;;18.77;10.10;;;;;;;-2.00;91.48;102828.13;4931290;29;20119;-72
2021/03/06 02:02:07;;;;;;;20.90;10.77;;;;;;;-2.01;91.81;102828.97;4912069;29;20126;-70
2021/03/06 02:04:36;;;;;;;19.30;9.52;;;;;;;-2.02;91.93;102835.09;4931956;29;20036;-70
2021/03/06 02:07:02;;;;;;;19.48;9.75;;;;;;;-2.05;92.02;102824.50;4914739;29;20028;-71
2021/03/06 02:09:28;;;;;;;19.85;9.57;;;;;;;-2.05;91.96;102824.50;4914968;29;20044;-70
2021/03/06 02:12:05;;;;;;;22.85;9.30;;;;;;;-2.08;92.32;102821.81;4930274;29;20094;-71
2021/03/06 02:14:42;;;;;;;20.38;9.57;;;;;;;-2.09;92.61;102822.66;4928553;29;20499;-71
2021/03/06 02:17:17;;;;;;;21.33;8.82;;;;;;;-2.12;92.56;102822.59;4929968;29;20158;-71
2021/03/06 02:20:21;;;;;;;21.17;10.02;;;;;;;-2.14;92.65;102819.03;4929497;29;20382;-71
2021/03/06 02:23:24;;;;;;;20.42;9.32;;;;;;;-2.16;92.83;102823.41;4926153;29;20039;-70
2021/03/06 02:25:52;;;;;;;20.58;9.55;;;;;;;-2.18;92.63;102827.72;4930902;29;20039;-71
2021/03/06 02:28:41;;;;;;;22.10;8.65;;;;;;;-2.19;92.79;102825.94;4925527;29;20267;-71
2021/03/06 02:31:09;;;;;;;19.90;8.70;;;;;;;-2.22;92.75;102820.66;4911919;29;20047;-69
2021/03/06 02:33:39;;;;;;;19.98;8.85;;;;;;;-2.24;92.97;102819.72;4930984;29;20124;-71
2021/03/06 02:36:10;;;;;;;20.75;9.48;;;;;;;-2.25;92.82;102815.28;4931505;29;20023;-71
2021/03/06 02:38:38;;;;;;;21.40;8.55;;;;;;;-2.26;92.98;102824.03;4929502;29;20036;-70
2021/03/06 02:41:05;;;;;;;23.85;9.45;;;;;;;-2.29;92.87;102814.34;4931252;29;20072;-71
2021/03/06 02:43:33;;;;;;;17.83;9.07;;;;;;;-2.29;92.95;102821.34;4934246;29;20042;-71
2021/03/06 02:46:00;;;;;;;16.13;8.50;;;;;;;-2.32;92.98;102813.38;4930516;29;20035;-71
2021/03/06 02:48:27;;;;;;;21.17;8.70;;;;;;;-2.33;93.06;102816.88;4930497;29;20027;-71
2021/03/06 02:50:54;;;;;;;17.20;8.48;;;;;;;-2.34;93.13;102820.34;4931120;29;20782;-70
2021/03/06 02:53:20;;;;;;;18.90;9.45;;;;;;;-2.37;93.39;102815.91;4931376;29;20028;-71
2021/03/06 02:55:46;;;;;;;17.85;9.00;;;;;;;-2.37;93.33;102820.28;4916988;29;20184;-71
2021/03/06 02:58:23;;;;;;;20.85;10.20;;;;;;;-2.40;93.24;102820.22;4929889;29;20126;-72
2021/03/06 03:00:53;;;;;;;18.45;9.55;;;;;;;-2.41;93.61;102823.72;4913979;29;20066;-71
2021/03/06 03:03:18;;;;;;;23.02;9.50;;;;;;;-2.43;93.92;102817.53;4919587;29;20050;-71
2021/03/06 03:06:22;;;;;;;25.90;9.35;;;;;;;-2.42;94.17;102814.03;4931329;29;20035;-71
2021/03/06 03:08:53;;;;;;;;;;;;;;;-2.46;94.34;102813.97;4926107;29;20098;-71
2021/03/06 03:11:24;;;;;;;17.30;8.98;;;;;;;-2.47;94.16;102808.69;4930359;29;19970;-70
2021/03/06 03:13:54;;;;;;;18.63;9.23;;;;;;;-2.48;94.73;102823.59;4914235;29;20051;-71
2021/03/06 03:16:22;;;;;;;22.17;9.85;;;;;;;-2.51;94.93;102815.59;4901405;29;20398;-71
2021/03/06 03:18:57;;;;;;;20.13;9.77;;;;;;;-2.51;95.44;102812.09;4923159;29;20035;-71
2021/03/06 03:21:27;;;;;;;20.08;9.20;;;;;;;-2.52;95.60;102815.56;4925443;29;20063;-71
2021/03/06 03:24:01;;;;;;;20.85;9.38;;;;;;;-2.54;96.08;102818.19;4930298;29;20031;-70
2021/03/06 03:26:28;;;;;;;16.60;8.57;;;;;;;-2.54;96.37;102822.56;4926157;29;20039;-70
2021/03/06 03:28:55;;;;;;;23.23;9.38;;;;;;;-2.56;96.48;102825.13;4930365;29;20544;-71
2021/03/06 03:31:26;;;;;;;24.25;9.65;;;;;;;-2.58;96.60;102832.09;4916730;29;20042;-72
2021/03/06 03:33:52;;;;;;;18.67;9.20;;;;;;;-2.58;96.76;102834.72;4913606;29;20039;-71
2021/03/06 03:36:23;;;;;;;18.60;9.63;;;;;;;-2.59;97.12;102832.94;4913502;29;20046;-71
2021/03/06 03:38:49;;;;;;;16.73;9.02;;;;;;;-2.62;96.88;102835.50;4915512;29;20040;-71
2021/03/06 03:41:15;;;;;;;25.73;9.95;;;;;;;-2.63;96.92;102833.72;4935529;29;20043;-69
2021/03/06 03:43:41;;;;;;;24.77;8.93;;;;;;;-2.64;97.04;102836.31;4915261;29;20046;-70
2021/03/06 03:46:07;;;;;;;17.95;8.80;;;;;;;-2.69;97.23;102830.97;4932499;29;20467;-72
2021/03/06 03:48:36;;;;;;;17.27;9.52;;;;;;;-2.72;97.46;102837.91;4930817;29;20043;-71
2021/03/06 03:51:02;;;;;;;18.15;8.98;;;;;;;-2.76;97.59;102831.66;4934696;29;20078;-70
2021/03/06 03:53:28;;;;;;;18.50;9.02;;;;;;;-2.78;97.66;102833.38;4914169;29;20059;-71
2021/03/06 03:55:54;;;;;;;20.70;9.05;;;;;;;-2.78;97.74;102835.13;4934106;29;20036;-71
2021/03/06 03:58:19;;;;;;;21.85;8.93;;;;;;;-2.80;97.99;102834.19;4916797;29;20137;-71
2021/03/06 04:00:45;;;;;;;16.80;8.68;;;;;;;-2.81;98.14;102827.16;4917961;29;20035;-71
2021/03/06 04:03:15;;;;;;;18.60;9.82;;;;;;;-2.79;98.10;102826.34;4933767;29;20044;-70
2021/03/06 04:05:40;;;;;;;21.40;9.35;;;;;;;-2.84;98.30;102820.09;4923381;29;20090;-71
2021/03/06 04:08:05;;;;;;;18.10;8.68;;;;;;;-2.85;98.31;102828.84;4930661;29;20681;-71
2021/03/06 04:10:31;;;;;;;18.60;8.98;;;;;;;-2.88;98.47;102831.38;4924028;29;20156;-71
2021/03/06 04:12:56;;;;;;;15.90;8.07;;;;;;;-2.91;98.62;102823.44;4923097;29;20562;-70
2021/03/06 04:15:24;;;;;;;22.83;9.52;;;;;;;-2.95;98.61;102829.44;4918897;29;20443;-71
2021/03/06 04:17:50;;;;;;;14.95;8.65;;;;;;;-3.01;99.27;102832.81;4917120;29;20035;-70
2021/03/06 04:20:19;;;;;;;18.38;9.00;;;;;;;-3.03;99.24;102836.25;4934403;29;20046;-71
2021/03/06 04:22:44;;;;;;;15.98;9.18;;;;;;;-3.05;99.59;102835.31;4933722;29;20039;-70
2021/03/06 04:25:11;;;;;;;19.13;8.77;;;;;;;-3.08;100.00;102832.59;4932255;29;20796;-70
2021/03/06 04:27:37;;;;;;;21.88;10.27;;;;;;;-3.10;99.69;102839.56;4916814;29;20111;-71
2021/03/06 04:30:05;;;;;;;21.10;9.45;;;;;;;-3.12;100.00;102836.91;4933348;29;20028;-71
2021/03/06 04:32:30;;;;;;;21.73;8.82;;;;;;;-3.12;100.00;102841.28;4933916;29;20098;-71
2021/03/06 04:34:55;;;;;;;15.93;8.63;;;;;;;-3.12;100.00;102838.63;4931520;29;20036;-71
2021/03/06 04:37:21;;;;;;;22.30;8.77;;;;;;;-3.14;100.00;102846.47;4933968;29;20457;-71
2021/03/06 04:39:46;;;;;;;18.58;9.05;;;;;;;-3.13;100.00;102837.75;4933429;29;20038;-71
2021/03/06 04:42:12;;;;;;;16.05;9.25;;;;;;;-3.14;100.00;102849.09;4936379;29;20035;-71
2021/03/06 04:44:37;;;;;;;17.05;8.43;;;;;;;-3.13;100.00;102850.00;4917606;29;20189;-71
2021/03/06 04:47:03;;;;;;;19.67;8.65;;;;;;;-3.15;100.00;102835.94;4916283;29;20103;-71
2021/03/06 04:49:29;;;;;;;17.70;8.80;;;;;;;-3.15;99.89;102849.09;4932515;29;20043;-71
2021/03/06 04:51:54;;;;;;;20.63;8.65;;;;;;;-3.16;99.77;102849.94;4936123;29;20039;-70
2021/03/06 04:54:20;;;;;;;16.48;8.45;;;;;;;-3.17;99.74;102854.28;4917464;29;20391;-72
2021/03/06 04:56:45;;;;;;;17.33;8.82;;;;;;;-3.18;99.79;102854.25;4932898;29;20047;-71
2021/03/06 04:59:11;;;;;;;15.60;8.57;;;;;;;-3.20;99.93;102854.19;4922279;29;20399;-71
2021/03/06 05:01:36;;;;;;;16.70;8.27;;;;;;;-3.21;99.80;102851.56;4933039;29;20023;-71
2021/03/06 05:04:01;;;;;;;16.95;9.20;;;;;;;-3.22;99.95;102855.03;4933882;29;20471;-71
2021/03/06 05:06:27;;;;;;;17.60;8.98;;;;;;;-3.23;99.74;102848.88;4914840;29;20032;-71
2021/03/06 05:08:53;;;;;;;19.80;8.30;;;;;;;-3.24;100.00;102851.47;4916283;29;20035;-71
2021/03/06 05:11:18;;;;;;;19.55;8.80;;;;;;;-3.27;100.00;102853.16;4936249;29;20546;-69
2021/03/06 05:13:43;;;;;;;17.70;8.57;;;;;;;-3.28;100.00;102851.41;4915431;29;20031;-71
2021/03/06 05:16:09;;;;;;;20.35;8.50;;;;;;;-3.28;100.00;102856.66;4932750;29;20031;-71
2021/03/06 05:18:34;;;;;;;13.57;8.30;;;;;;;-3.29;100.00;102849.63;4904843;29;20032;-71
2021/03/06 05:21:00;;;;;;;13.85;7.63;;;;;;;-3.31;100.00;102851.28;4936466;29;20576;-69
2021/03/06 05:23:28;;;;;;;21.95;9.00;;;;;;;-3.34;100.00;102853.84;4915427;29;20043;-71
2021/03/06 05:25:53;;;;;;;16.48;8.18;;;;;;;-3.37;100.00;102851.13;4931110;29;20032;-71
2021/03/06 05:28:19;;;;;;;15.07;7.90;;;;;;;-3.38;100.00;102849.34;4931722;29;20402;-71
2021/03/06 05:30:45;;;;;;;20.58;9.13;;;;;;;-3.39;100.00;102854.56;4915677;29;20046;-71
2021/03/06 05:33:11;;;;;;;21.15;8.65;;;;;;;-3.41;100.00;102851.03;4928854;29;20035;-71
2021/03/06 05:35:36;;;;;;;18.92;8.75;;;;;;;-3.42;100.00;102850.13;4932030;29;20037;-71
2021/03/06 05:38:01;;;;;;;19.70;9.05;;;;;;;-3.42;100.00;102863.25;4915704;29;20039;-71
2021/03/06 05:40:29;;;;;;;17.42;8.35;;;;;;;-3.44;100.00;102853.53;4922159;29;20086;-71
2021/03/06 05:42:55;;;;;;;17.08;8.60;;;;;;;-3.47;100.00;102851.75;4934301;29;20474;-69
2021/03/06 05:45:20;;;;;;;17.65;8.07;;;;;;;-3.49;100.00;102861.31;4916272;29;20046;-71
2021/03/06 05:47:46;;;;;;;18.17;8.88;;;;;;;-3.51;100.00;102851.59;4942749;29;20023;-71
2021/03/06 05:50:11;;;;;;;17.70;8.23;;;;;;;-3.53;100.00;102859.47;4942093;29;20035;-71
2021/03/06 05:52:40;;;;;;;17.73;8.88;;;;;;;-3.56;100.00;102859.34;4916007;29;20119;-69
2021/03/06 05:55:06;;;;;;;19.45;9.60;;;;;;;-3.57;100.00;102865.44;4931781;29;20035;-70
2021/03/06 05:57:34;;;;;;;19.85;8.98;;;;;;;-3.59;100.00;102858.41;4916812;29;20087;-71
2021/03/06 06:00:02;;;;;;;25.10;8.68;;;;;;;-3.63;100.00;102862.66;4916645;29;20434;-72
2021/03/06 06:02:30;;;;;;;15.50;8.27;;;;;;;-3.64;100.00;102853.00;4932736;29;20073;-71
2021/03/06 06:04:55;;;;;;;22.60;8.85;;;;;;;-3.65;100.00;102858.22;4912947;29;20145;-71
2021/03/06 06:07:22;;;;;;;20.20;8.55;;;;;;;-3.65;100.00;102868.72;4929627;29;20036;-71
2021/03/06 06:09:47;;;;;;;19.95;9.18;;;;;;;-3.66;100.00;102854.72;4919961;29;20107;-71
2021/03/06 06:12:13;;;;;;;20.75;9.05;;;;;;;-3.65;100.00;102859.13;4916146;29;20039;-71
2021/03/06 06:14:39;;;;;;;18.80;9.45;;;;;;;-3.63;100.00;102864.38;4900243;29;20034;-71
2021/03/06 06:17:06;;;;;;;16.70;8.73;;;;;;;-3.64;100.00;102866.13;4929737;29;20169;-71
2021/03/06 06:19:33;;;;;;;18.23;9.07;;;;;;;-3.62;100.00;102861.81;4931389;29;20035;-70
2021/03/06 06:22:01;;;;;;;20.55;9.30;;;;;;;-3.62;100.00;102868.78;4931629;29;20502;-71
2021/03/06 06:24:27;;;;;;;22.65;9.60;;;;;;;-3.62;100.00;102858.28;4930053;29;20479;-71
2021/03/06 06:27:02;;;;;;;18.35;9.40;;;;;;;-3.61;100.00;102871.47;4912541;29;20027;-71
2021/03/06 06:29:42;;;;;;;21.52;10.02;;;;;;;-3.59;100.00;102866.28;4922890;29;20306;-71
2021/03/06 06:32:12;;;;;;;19.60;8.88;;;;;;;-3.59;100.00;102868.91;4928438;29;20038;-71
2021/03/06 06:34:38;;;;;;;18.02;9.80;;;;;;;-3.58;100.00;102868.91;4928280;29;20032;-71
2021/03/06 06:37:08;;;;;;;20.85;9.65;;;;;;;-3.58;100.00;102879.41;4932224;29;20030;-71
2021/03/06 06:39:34;;;;;;;20.38;10.02;;;;;;;-3.57;100.00;102881.19;4899723;29;20057;-71
2021/03/06 06:42:00;;;;;;;18.05;9.65;;;;;;;-3.56;100.00;102875.09;4929785;29;20160;-72
2021/03/06 06:44:30;;;;;;;17.17;9.68;;;;;;;-3.52;100.00;102890.13;4925593;29;20042;-70
2021/03/06 06:46:57;;;;;;;18.77;9.50;;;;;;;-3.48;100.00;102884.09;4931380;29;20031;-70
2021/03/06 06:49:23;;;;;;;19.05;9.50;;;;;;;-3.44;100.00;102885.06;4913426;29;20047;-70
2021/03/06 06:52:00;;;;;;;16.92;9.38;;;;;;;-3.40;100.00;102893.06;4930039;29;20042;-70
2021/03/06 06:54:28;;;;;;;21.33;9.38;;;;;;;-3.36;100.00;102894.94;4930311;29;20032;-71
2021/03/06 06:57:08;;;;;;;20.17;9.40;;;;;;;-3.30;100.00;102895.09;4930916;29;20032;-70
2021/03/06 06:59:33;;;;;;;18.73;9.73;;;;;;;-3.27;100.00;102903.03;4928981;29;20465;-70
2021/03/06 07:02:04;;;;;;;23.17;10.13;;;;;;;-3.22;100.00;102899.66;4938897;29;20146;-70
2021/03/06 07:04:42;;;;;;;23.33;10.30;;;;;;;-3.18;100.00;102893.63;4928270;29;20040;-70
2021/03/06 07:07:09;;;;;;;22.60;10.40;;;;;;;-3.07;100.00;102902.69;4930442;29;20115;-70
2021/03/06 07:09:34;;;;;;;22.40;11.05;;;;;;;-2.84;100.00;102901.56;4929175;29;20047;-70
2021/03/06 07:12:15;;;;;;;23.25;11.77;;;;;;;-2.46;100.00;102900.75;4928936;29;20020;-70
2021/03/06 07:14:41;;;;;;;22.85;11.05;;;;;;;-2.01;100.00;102899.13;4936082;29;20031;-70
2021/03/06 07:17:06;;;;;;;20.17;10.10;;;;;;;-1.53;100.00;102907.16;4938003;29;20039;-70
2021/03/06 07:19:32;;;;;;;18.00;9.57;;;;;;;-0.93;100.00;102910.09;4937919;28;20036;-71
2021/03/06 07:21:59;;;;;;;22.52;9.27;;;;;;;-0.50;99.82;102912.59;4937006;29;20036;-70
2021/03/06 07:24:28;;;;;;;21.52;9.55;;;;;;;-0.09;98.11;102901.78;4935355;29;20082;-70
2021/03/06 07:26:54;;;;;;;16.23;8.23;;;;;;;0.47;95.01;102913.09;4934408;29;20032;-70
2021/03/06 07:29:21;;;;;;;24.35;8.75;;;;;;;1.05;92.16;102919.03;4938119;29;20040;-70
2021/03/06 07:31:50;;;;;;;18.08;9.98;;;;;;;1.54;90.71;102920.34;4918871;29;20031;-71
2021/03/06 07:34:19;;;;;;;19.15;9.60;;;;;;;1.99;87.54;102925.06;4920482;29;20035;-71
2021/03/06 07:36:46;;;;;;;16.52;8.68;;;;;;;2.22;85.33;102927.88;4920650;29;20039;-71
2021/03/06 07:39:14;;;;;;;22.17;8.85;;;;;;;2.43;82.30;102928.84;4918279;29;20042;-70
2021/03/06 07:41:43;;;;;;;17.00;8.15;;;;;;;2.61;81.62;102935.09;4931470;29;20051;-70
2021/03/06 07:44:11;;;;;;;17.95;8.90;;;;;;;2.84;80.51;102936.94;4935989;29;20118;-71
2021/03/06 07:46:38;;;;;;;22.52;9.32;;;;;;;3.18;79.46;102943.22;4921154;29;20027;-71
2021/03/06 07:49:11;;;;;;;15.60;8.60;;;;;;;3.55;77.89;102941.50;4918388;29;20051;-69
2021/03/06 07:51:43;;;;;;;17.23;8.68;;;;;;;3.81;75.68;102944.16;4935311;29;20043;-69
2021/03/06 07:54:16;;;;;;;14.90;8.07;;;;;;;4.04;73.81;102944.09;4919113;29;20139;-71
2021/03/06 07:56:42;;;;;;;15.77;8.57;;;;;;;4.21;73.06;102942.28;4935471;29;20110;-72
2021/03/06 07:59:08;;;;;;;18.08;8.43;;;;;;;4.23;72.40;102950.25;4935271;29;20167;-71
2021/03/06 08:01:35;;;;;;;19.02;9.50;;;;;;;4.31;72.40;102948.47;4936559;29;20142;-71
2021/03/06 08:04:03;;;;;;;16.63;8.70;;;;;;;4.49;72.60;102964.38;4936055;29;20122;-71
2021/03/06 08:06:30;;;;;;;18.88;9.40;;;;;;;4.57;72.44;102962.56;4939089;28;20031;-71
2021/03/06 08:09:06;;;;;;;14.82;8.10;;;;;;;4.77;70.91;102958.03;4920440;29;20044;-71
2021/03/06 08:11:44;;;;;;;21.15;9.38;;;;;;;5.14;69.90;102965.81;4936000;29;20035;-71
2021/03/06 08:14:27;;;;;;;20.60;9.27;;;;;;;5.22;69.40;102964.00;4940105;29;20035;-71
2021/03/06 08:16:53;;;;;;;14.25;8.27;;;;;;;5.31;68.90;102963.94;4933548;29;20422;-71
2021/03/06 08:19:18;;;;;;;15.75;8.80;;;;;;;5.64;68.22;102958.38;4939870;29;20039;-71
2021/03/06 08:21:45;;;;;;;18.70;8.07;;;;;;;5.85;66.81;102962.63;4935620;29;20035;-71
2021/03/06 08:24:13;;;;;;;35.80;16.33;;;;;;;6.06;63.85;102961.56;4935361;29;20039;-71
2021/03/06 08:26:43;;;;;;;20.08;10.40;;;;;;;6.34;62.53;102965.72;4925762;29;20046;-71
2021/03/06 08:29:23;;;;;;;18.70;8.68;;;;;;;6.60;61.61;102960.09;4931552;29;20070;-71
2021/03/06 08:32:07;;;;;;;16.83;8.82;;;;;;;6.82;59.94;102961.59;4932647;29;20473;-71
2021/03/06 08:34:56;;;;;;;12.93;6.90;;;;;;;6.93;57.91;102958.75;4932196;29;20032;-71
2021/03/06 08:37:22;;;;;;;18.58;7.43;;;;;;;7.15;55.93;102968.25;4934581;29;20405;-72
2021/03/06 08:39:53;;;;;;;14.00;6.65;;;;;;;7.28;53.26;102967.16;4932039;29;20039;-72
2021/03/06 08:42:40;;;;;;;20.42;7.00;;;;;;;7.30;53.46;102962.69;4937801;29;20147;-72
2021/03/06 08:45:11;;;;;;;16.33;7.15;;;;;;;7.58;52.80;102964.94;4931205;29;20145;-71
2021/03/06 08:47:39;;;;;;;14.98;6.57;;;;;;;7.60;53.01;102968.44;4942174;29;20042;-71
2021/03/06 08:50:11;;;;;;;12.77;7.25;;;;;;;7.72;53.55;102963.78;4929281;29;20126;-71
2021/03/06 08:52:39;;;;;;;16.15;6.95;;;;;;;8.06;52.32;102953.38;4926412;29;20471;-71
2021/03/06 08:55:07;;;;;;;12.13;6.65;;;;;;;8.27;52.76;102956.59;4914771;29;20043;-71
2021/03/06 08:57:35;;;;;;;19.48;8.38;;;;;;;7.99;52.16;102954.41;4940335;29;20045;-71
2021/03/06 09:00:16;;;;;;;21.63;7.07;;;;;;;8.08;52.22;102953.38;4926288;29;20039;-71
2021/03/06 09:02:42;;;;;;;12.25;7.45;;;;;;;8.23;50.83;102957.53;4916682;29;20035;-71
2021/03/06 09:05:08;;;;;;;13.55;7.43;;;;;;;8.12;52.11;102958.63;4925610;29;20334;-71
2021/03/06 09:07:37;;;;;;;16.13;7.88;;;;;;;8.34;52.37;102964.47;4932620;29;20034;-71
2021/03/06 09:10:38;;;;;;;16.77;7.60;;;;;;;8.44;50.65;102959.84;4930959;29;20565;-71
2021/03/06 09:13:11;;;;;;;14.30;6.90;;;;;;;8.32;50.17;102960.09;4929900;29;20031;-71
2021/03/06 09:15:45;;;;;;;14.65;6.82;;;;;;;8.36;49.52;102968.00;4929589;29;20065;-71
2021/03/06 09:18:16;;;;;;;14.05;7.20;;;;;;;7.98;50.58;102971.34;4928510;29;20021;-71
2021/03/06 09:20:50;;;;;;;17.23;6.95;;;;;;;7.80;52.07;102963.66;4930476;29;20071;-71
2021/03/06 09:23:22;;;;;;;;;;;;;;;7.61;52.00;102965.75;4926848;29;20126;-71
2021/03/06 09:25:48;;;;;;;11.38;6.07;;;;;;;7.71;51.62;102971.84;4931030;29;20009;-71
2021/03/06 09:28:13;;;;;;;14.52;6.85;;;;;;;7.58;52.12;102964.94;4914604;29;20126;-71
2021/03/06 09:30:41;;;;;;;13.88;6.63;;;;;;;7.22;53.04;102977.06;4928610;29;20035;-71
2021/03/06 09:33:34;;;;;;;13.60;7.30;;;;;;;7.04;53.84;102972.84;4934009;29;20106;-71
2021/03/06 09:36:22;;;;;;;15.55;7.00;;;;;;;6.82;53.97;102974.03;4927161;29;20439;-71
2021/03/06 09:38:50;;;;;;;10.88;5.43;;;;;;;6.44;52.93;102970.06;4929956;29;20035;-71
2021/03/06 09:41:18;;;;;;;11.90;6.93;;;;;;;6.30;55.09;102969.31;4933007;29;20067;-71
2021/03/06 09:43:50;;;;;;;15.07;7.05;;;;;;;6.31;56.88;102968.41;4933296;29;20036;-71
2021/03/06 09:46:22;;;;;;;15.00;7.60;;;;;;;6.23;58.37;102959.63;4933672;29;20070;-71
2021/03/06 09:49:17;;;;;;;21.33;7.60;;;;;;;6.40;57.51;102963.00;4931578;29;20573;-71
2021/03/06 09:51:46;;;;;;;12.20;5.97;;;;;;;6.33;56.54;102950.63;4911328;29;20170;-71
2021/03/06 09:54:15;;;;;;;14.05;6.20;;;;;;;6.43;55.23;102946.94;4913659;29;20095;-71
2021/03/06 09:56:54;;;;;;;11.25;6.88;;;;;;;6.27;55.99;102961.34;4913060;29;20619;-70
2021/03/06 09:59:21;;;;;;;10.30;5.95;;;;;;;6.11;58.12;102964.22;4914992;29;20059;-71
2021/03/06 10:01:47;;;;;;;11.45;6.60;;;;;;;6.13;56.32;102962.38;4922246;29;20046;-70
2021/03/06 10:04:18;;;;;;;13.52;5.55;;;;;;;6.13;52.56;102963.28;4924110;29;20031;-70
2021/03/06 10:06:45;;;;;;;9.23;4.72;;;;;;;5.87;53.86;102959.94;4930461;29;20024;-70
2021/03/06 10:09:14;;;;;;;13.95;6.35;;;;;;;5.89;57.02;102951.06;4927209;29;20521;-70
2021/03/06 10:11:41;;;;;;;14.63;5.63;;;;;;;5.91;57.48;102940.41;4920742;29;20062;-70
2021/03/06 10:14:10;;;;;;;16.40;5.68;;;;;;;5.87;54.77;102947.53;4925361;29;20086;-71
2021/03/06 10:16:49;;;;;;;10.18;5.18;;;;;;;5.94;55.60;102940.34;4931021;29;20395;-71
2021/03/06 10:19:19;;;;;;;13.68;6.13;;;;;;;5.98;55.95;102935.00;4925334;29;20553;-71
2021/03/06 10:22:07;;;;;;;8.85;5.40;;;;;;;6.20;55.41;102938.31;4931483;29;20843;-71
2021/03/06 10:25:02;;;;;;;13.88;5.00;;;;;;;6.19;52.88;102935.66;4910684;29;20047;-71
2021/03/06 10:27:35;;;;;;;9.30;5.35;;;;;;;6.17;53.59;102938.38;4933538;29;20034;-71
2021/03/06 10:30:27;;;;;;;7.88;4.75;;;;;;;6.22;54.02;102933.84;4929033;29;20043;-71
2021/03/06 10:32:57;;;;;;;17.33;4.50;;;;;;;6.30;50.71;102934.63;4929027;29;20123;-71
2021/03/06 10:35:35;;;;;;;8.77;4.20;;;;;;;6.62;52.39;102936.03;4928727;29;20613;-71
2021/03/06 10:38:02;;;;;;;9.77;3.85;;;;;;;6.62;52.49;102928.03;4928256;29;20040;-71
2021/03/06 10:40:49;;;;;;;24.58;4.15;;;;;;;6.64;48.98;102940.47;4914195;29;20035;-71
2021/03/06 10:43:38;;;;;;;10.02;4.32;;;;;;;6.48;48.32;102928.22;4910263;29;20036;-71
2021/03/06 10:46:08;;;;;;;13.52;3.83;;;;;;;6.58;49.47;102924.53;4912759;29;20036;-71
2021/03/06 10:48:34;;;;;;;9.63;4.38;;;;;;;6.51;47.84;102922.84;4928666;29;20039;-71
2021/03/06 10:50:59;;;;;;;20.08;4.80;;;;;;;6.60;48.62;102921.84;4929720;29;20039;-71
2021/03/06 10:53:25;;;;;;;9.40;4.57;;;;;;;6.57;48.80;102921.88;4930831;29;20047;-71
2021/03/06 10:55:52;;;;;;;9.18;3.67;;;;;;;6.64;49.47;102920.91;4931230;29;20032;-71
2021/03/06 10:58:20;;;;;;;9.25;4.63;;;;;;;6.68;47.93;102925.28;4916155;29;20028;-71
2021/03/06 11:00:48;;;;;;;14.13;5.30;;;;;;;6.74;48.54;102920.75;4928212;29;20514;-71
2021/03/06 11:03:14;;;;;;;6.28;3.42;;;;;;;6.93;44.92;102921.38;4928094;29;20082;-71
2021/03/06 11:05:41;;;;;;;5.25;2.25;;;;;;;6.87;45.53;102910.78;4930929;29;20046;-71
2021/03/06 11:08:16;;;;;;;9.75;3.63;;;;;;;7.12;46.67;102911.31;4929352;29;20168;-71
2021/03/06 11:10:44;;;;;;;9.48;3.95;;;;;;;6.95;46.23;102916.91;4927319;29;20422;-71
2021/03/06 11:13:10;;;;;;;7.93;2.70;;;;;;;7.13;44.88;102923.78;4929880;29;20035;-71
2021/03/06 11:15:44;;;;;;;6.82;2.42;;;;;;;7.14;45.66;102917.53;4932345;29;20089;-71
2021/03/06 11:18:09;;;;;;;5.28;2.63;;;;;;;7.21;46.21;102912.06;4912211;29;20050;-71
2021/03/06 11:20:34;;;;;;;12.80;3.53;;;;;;;7.14;47.15;102921.09;4929501;29;20047;-72
2021/03/06 11:23:03;;;;;;;6.35;3.42;;;;;;;7.03;45.83;102912.34;4928493;29;20661;-71
2021/03/06 11:25:29;;;;;;;14.15;2.97;;;;;;;7.18;46.63;102904.09;4929184;29;20405;-71
2021/03/06 11:27:58;;;;;;;3.25;2.30;;;;;;;7.28;45.85;102896.84;4928918;29;20118;-71